createdAt,value
2022-12-03T00:01:59.873Z,21.90
2022-12-03T00:04:26.981Z,20.77
2022-12-03T00:06:56.520Z,21.17
2022-12-03T00:09:24.369Z,19.77
2022-12-03T00:11:51.202Z,22.88
2022-12-03T00:14:17.977Z,20.57
2022-12-03T00:16:44.857Z,20.15
2022-12-03T00:19:11.522Z,20.67
2022-12-03T00:21:38.242Z,21.17
2022-12-03T00:24:05.445Z,20.47
2022-12-03T00:26:32.164Z,19.38
2022-12-03T00:28:58.985Z,21.83
2022-12-03T00:31:26.210Z,20.13
2022-12-03T00:33:55.714Z,22.55
2022-12-03T00:36:22.397Z,21.02
2022-12-03T00:38:49.233Z,20.30
2022-12-03T00:41:15.899Z,23.20
2022-12-03T00:43:42.752Z,22.13
2022-12-03T00:46:09.659Z,21.00
2022-12-03T00:48:36.517Z,20.95
2022-12-03T00:51:03.289Z,20.40
2022-12-03T00:53:32.665Z,20.20
2022-12-03T00:56:01.760Z,20.70
2022-12-03T00:58:28.621Z,20.75
2022-12-03T01:00:55.324Z,21.42
2022-12-03T01:03:31.229Z,21.55
2022-12-03T01:06:04.898Z,21.23
2022-12-03T01:08:34.153Z,19.50
2022-12-03T01:11:00.957Z,20.98
2022-12-03T01:13:27.721Z,20.60
2022-12-03T01:16:05.338Z,20.45
2022-12-03T01:18:32.091Z,19.40
2022-12-03T01:20:59.912Z,20.63
2022-12-03T01:23:26.628Z,18.73
2022-12-03T01:25:53.321Z,19.15
2022-12-03T01:28:20.140Z,21.60
2022-12-03T01:31:05.449Z,21.97
2022-12-03T01:33:32.210Z,20.70
2022-12-03T01:35:58.913Z,22.63
2022-12-03T01:38:25.676Z,21.35
2022-12-03T01:40:54.730Z,23.20
2022-12-03T01:43:23.942Z,22.58
2022-12-03T01:45:50.714Z,21.00
2022-12-03T01:48:17.683Z,20.90
2022-12-03T01:50:45.998Z,22.92
2022-12-03T01:53:18.280Z,22.73
2022-12-03T01:55:48.899Z,21.98
2022-12-03T01:58:16.840Z,22.85
2022-12-03T02:03:29.237Z,18.25
2022-12-03T02:05:57.081Z,18.92
2022-12-03T02:08:40.107Z,21.33
2022-12-03T02:11:16.668Z,20.80
2022-12-03T02:13:44.349Z,20.60
2022-12-03T02:18:37.968Z,20.42
2022-12-03T02:21:45.312Z,22.07
2022-12-03T02:24:27.208Z,21.40
2022-12-03T02:26:53.973Z,21.80
2022-12-03T02:29:22.297Z,21.30
2022-12-03T02:31:49.151Z,21.58
2022-12-03T02:34:42.222Z,22.20
2022-12-03T02:37:14.617Z,21.38
2022-12-03T02:39:45.978Z,23.25
2022-12-03T02:42:31.711Z,21.98
2022-12-03T02:45:05.441Z,22.00
2022-12-03T02:47:40.444Z,21.98
2022-12-03T02:50:09.553Z,21.05
2022-12-03T02:52:37.076Z,21.17
2022-12-03T02:55:06.715Z,20.60
2022-12-03T02:57:36.054Z,21.45
2022-12-03T03:00:03.855Z,21.67
2022-12-03T03:02:30.777Z,23.05
2022-12-03T03:04:57.971Z,20.92
2022-12-03T03:07:25.006Z,21.00
2022-12-03T03:09:51.860Z,20.42
2022-12-03T03:12:18.653Z,24.73
2022-12-03T03:14:45.590Z,23.10
2022-12-03T03:17:13.361Z,21.77
2022-12-03T03:22:06.893Z,21.65
2022-12-03T03:24:33.911Z,19.80
2022-12-03T03:27:00.584Z,20.58
2022-12-03T03:29:27.605Z,19.85
2022-12-03T03:31:54.647Z,20.48
2022-12-03T03:34:21.652Z,19.55
2022-12-03T03:36:49.575Z,19.88
2022-12-03T03:39:16.353Z,20.20
2022-12-03T03:41:45.923Z,19.10
2022-12-03T03:44:13.974Z,19.50
2022-12-03T03:46:42.708Z,19.25
2022-12-03T03:49:10.585Z,19.70
2022-12-03T03:51:38.042Z,19.70
2022-12-03T03:54:05.832Z,19.50
2022-12-03T03:56:34.957Z,19.17
2022-12-03T03:59:02.806Z,19.40
2022-12-03T04:01:30.520Z,20.35
2022-12-03T04:04:00.808Z,19.45
2022-12-03T04:06:28.083Z,20.23
2022-12-03T04:08:56.511Z,20.20
2022-12-03T04:11:42.253Z,20.90
2022-12-03T04:14:08.998Z,20.38
2022-12-03T04:16:35.729Z,19.27
2022-12-03T04:19:02.459Z,18.67
2022-12-03T04:21:47.843Z,18.83
2022-12-03T04:24:14.661Z,18.67
2022-12-03T04:27:02.051Z,20.00
2022-12-03T04:29:28.805Z,18.48
2022-12-03T04:32:14.059Z,19.27
2022-12-03T04:34:59.268Z,19.05
2022-12-03T04:37:27.249Z,18.63
2022-12-03T04:39:54.055Z,18.60
2022-12-03T04:42:20.921Z,19.03
2022-12-03T04:44:47.830Z,19.47
2022-12-03T04:47:23.532Z,19.38
2022-12-03T04:49:52.553Z,19.35
2022-12-03T04:52:20.158Z,19.02
2022-12-03T04:54:47.039Z,19.33
2022-12-03T04:57:15.041Z,20.55
2022-12-03T04:59:41.762Z,18.60
2022-12-03T05:02:10.961Z,18.95
2022-12-03T05:04:37.685Z,19.02
2022-12-03T05:07:04.494Z,19.65
2022-12-03T05:09:31.249Z,19.60
2022-12-03T05:11:57.933Z,20.57
2022-12-03T05:14:24.599Z,21.13
2022-12-03T05:16:51.520Z,19.83
2022-12-03T05:19:18.278Z,19.17
2022-12-03T05:21:44.995Z,19.37
2022-12-03T05:24:11.705Z,20.15
2022-12-03T05:26:38.393Z,19.00
2022-12-03T05:29:05.134Z,18.67
2022-12-03T05:31:31.955Z,19.20
2022-12-03T05:33:58.685Z,18.88
2022-12-03T05:36:25.693Z,18.17
2022-12-03T05:38:52.522Z,17.73
2022-12-03T05:41:38.794Z,19.40
2022-12-03T05:44:05.644Z,19.75
2022-12-03T05:46:32.996Z,20.63
2022-12-03T05:48:59.991Z,17.80
2022-12-03T05:51:26.849Z,19.70
2022-12-03T05:53:53.563Z,19.67
2022-12-03T05:56:20.297Z,18.03
2022-12-03T05:58:47.100Z,17.92
2022-12-03T06:01:13.850Z,17.43
2022-12-03T06:03:40.684Z,17.43
2022-12-03T06:06:07.596Z,17.42
2022-12-03T06:08:34.422Z,17.87
2022-12-03T06:11:01.243Z,16.03
2022-12-03T06:13:31.037Z,15.87
2022-12-03T06:15:57.954Z,16.15
2022-12-03T06:18:24.892Z,19.40
2022-12-03T06:20:51.687Z,15.43
2022-12-03T06:23:18.714Z,15.77
2022-12-03T06:25:45.515Z,16.25
2022-12-03T06:28:12.583Z,15.73
2022-12-03T06:30:39.325Z,16.17
2022-12-03T06:33:08.163Z,16.47
2022-12-03T06:35:34.912Z,15.45
2022-12-03T06:38:02.725Z,17.00
2022-12-03T06:40:29.461Z,16.05
2022-12-03T06:42:56.475Z,16.45
2022-12-03T06:45:23.207Z,16.90
2022-12-03T06:47:52.300Z,16.47
2022-12-03T06:50:19.093Z,14.98
2022-12-03T06:52:45.778Z,16.93
2022-12-03T06:55:12.752Z,15.27
2022-12-03T06:57:39.548Z,16.33
2022-12-03T07:00:09.317Z,16.80
2022-12-03T07:02:36.695Z,15.35
2022-12-03T07:05:04.310Z,14.45
2022-12-03T07:07:31.236Z,15.20
2022-12-03T07:09:58.480Z,15.65
2022-12-03T07:12:25.332Z,16.30
2022-12-03T07:14:52.329Z,14.13
2022-12-03T07:17:20.427Z,14.27
2022-12-03T07:19:47.195Z,15.50
2022-12-03T07:22:15.301Z,14.87
2022-12-03T07:24:42.039Z,15.48
2022-12-03T07:27:08.840Z,15.47
2022-12-03T07:29:35.629Z,15.93
2022-12-03T07:32:02.394Z,14.70
2022-12-03T07:34:30.670Z,15.60
2022-12-03T07:37:00.327Z,15.10
2022-12-03T07:39:27.175Z,14.63
2022-12-03T07:41:53.986Z,15.53
2022-12-03T07:44:20.721Z,15.60
2022-12-03T07:46:47.597Z,15.47
2022-12-03T07:49:14.641Z,16.45
2022-12-03T07:51:42.976Z,22.88
2022-12-03T07:54:09.728Z,20.63
2022-12-03T07:56:42.771Z,15.20
2022-12-03T07:59:17.427Z,14.43
2022-12-03T08:01:46.093Z,13.60
2022-12-03T08:04:14.886Z,14.23
2022-12-03T08:06:42.552Z,15.18
2022-12-03T08:09:14.594Z,13.60
2022-12-03T08:11:47.349Z,13.32
2022-12-03T08:14:16.704Z,13.35
2022-12-03T08:16:47.577Z,14.40
2022-12-03T08:19:17.250Z,13.73
2022-12-03T08:21:44.416Z,13.23
2022-12-03T08:24:15.742Z,14.23
2022-12-03T08:26:45.637Z,14.38
2022-12-03T08:29:15.241Z,19.90
2022-12-03T08:31:42.829Z,16.23
2022-12-03T08:36:42.668Z,12.65
2022-12-03T08:39:35.933Z,14.98
2022-12-03T08:42:58.828Z,15.20
2022-12-03T08:45:40.136Z,14.77
2022-12-03T08:48:47.035Z,14.95
2022-12-03T08:51:21.836Z,15.05
2022-12-03T08:53:58.163Z,17.02
2022-12-03T08:56:30.020Z,14.15
2022-12-03T08:59:17.448Z,16.75
2022-12-03T09:01:47.053Z,17.08
2022-12-03T09:04:35.078Z,16.08
2022-12-03T09:07:02.131Z,17.42
2022-12-03T09:09:28.980Z,16.52
2022-12-03T09:11:56.282Z,17.27
2022-12-03T09:14:23.646Z,15.20
2022-12-03T09:16:55.581Z,15.98
2022-12-03T09:19:27.532Z,15.23
2022-12-03T09:21:55.142Z,17.52
2022-12-03T09:26:49.030Z,47.20
2022-12-03T09:29:16.035Z,108.07
2022-12-03T09:31:42.884Z,61.88
2022-12-03T09:34:10.001Z,28.92
2022-12-03T09:36:36.814Z,20.35
2022-12-03T09:39:03.809Z,19.43
2022-12-03T09:41:31.624Z,16.70
2022-12-03T09:44:04.378Z,16.85
2022-12-03T09:46:31.710Z,16.52
2022-12-03T09:48:58.568Z,17.60
2022-12-03T09:51:30.166Z,17.00
2022-12-03T09:54:02.947Z,16.17
2022-12-03T09:56:29.948Z,17.65
2022-12-03T09:58:56.746Z,16.85
2022-12-03T10:01:27.874Z,16.53
2022-12-03T10:03:56.788Z,16.77
2022-12-03T10:06:24.376Z,15.57
2022-12-03T10:08:55.586Z,17.48
2022-12-03T10:11:25.124Z,15.20
2022-12-03T10:13:54.325Z,16.35
2022-12-03T10:16:23.200Z,16.77
2022-12-03T10:18:52.765Z,15.40
2022-12-03T10:21:27.461Z,16.00
2022-12-03T10:24:21.627Z,15.25
2022-12-03T10:26:50.669Z,16.60
2022-12-03T10:29:18.990Z,16.67
2022-12-03T10:31:49.099Z,18.92
2022-12-03T10:34:25.099Z,17.30
2022-12-03T10:37:22.567Z,17.77
2022-12-03T10:40:11.302Z,16.27
2022-12-03T10:42:40.741Z,15.75
2022-12-03T10:45:08.776Z,16.38
2022-12-03T10:47:35.883Z,16.23
2022-12-03T10:50:07.052Z,15.68
2022-12-03T10:52:34.992Z,15.27
2022-12-03T10:55:02.281Z,15.65
2022-12-03T10:57:30.100Z,14.85
2022-12-03T11:00:05.772Z,15.63
2022-12-03T11:02:33.934Z,16.45
2022-12-03T11:05:00.929Z,14.98
2022-12-03T11:07:47.800Z,18.23
2022-12-03T11:10:19.438Z,20.08
2022-12-03T11:13:26.424Z,20.00
2022-12-03T11:15:53.714Z,18.02
2022-12-03T11:18:41.641Z,16.10
2022-12-03T11:21:13.325Z,15.95
2022-12-03T11:23:48.798Z,15.05
2022-12-03T11:26:18.931Z,17.48
2022-12-03T11:28:47.740Z,15.10
2022-12-03T11:31:50.301Z,16.60
2022-12-03T11:34:40.060Z,15.40
2022-12-03T11:37:15.399Z,17.27
2022-12-03T11:39:48.276Z,16.95
2022-12-03T11:42:27.070Z,16.90
2022-12-03T11:45:32.359Z,15.43
2022-12-03T11:48:02.295Z,16.20
2022-12-03T11:50:40.387Z,16.23
2022-12-03T11:53:22.092Z,16.23
2022-12-03T11:56:06.640Z,17.60
2022-12-03T11:58:48.939Z,17.13
2022-12-03T12:01:16.079Z,17.65
2022-12-03T12:03:50.697Z,17.02
2022-12-03T12:06:20.494Z,15.77
2022-12-03T12:08:59.136Z,17.67
2022-12-03T12:11:27.277Z,16.75
2022-12-03T12:14:03.819Z,16.25
2022-12-03T12:16:50.518Z,16.08
2022-12-03T12:19:42.663Z,15.68
2022-12-03T12:22:20.604Z,16.08
2022-12-03T12:25:01.800Z,16.83
2022-12-03T12:27:49.327Z,16.15
2022-12-03T12:30:19.364Z,17.35
2022-12-03T12:33:14.248Z,16.08
2022-12-03T12:35:42.498Z,17.25
2022-12-03T12:38:11.306Z,16.50
2022-12-03T12:40:42.551Z,15.73
2022-12-03T12:43:16.470Z,16.65
2022-12-03T12:45:46.078Z,15.07
2022-12-03T12:48:34.483Z,15.98
2022-12-03T12:51:12.170Z,12.80
2022-12-03T12:53:42.646Z,15.13
2022-12-03T12:56:19.489Z,12.38
2022-12-03T12:58:46.263Z,14.25
2022-12-03T13:01:21.258Z,12.37
2022-12-03T13:03:51.419Z,12.95
2022-12-03T13:06:21.468Z,14.75
2022-12-03T13:08:50.194Z,14.63
2022-12-03T13:11:25.792Z,13.88
2022-12-03T13:13:53.558Z,13.27
2022-12-03T13:16:24.873Z,14.63
2022-12-03T13:18:59.711Z,14.50
2022-12-03T13:21:41.297Z,14.45
2022-12-03T13:24:38.718Z,13.68
2022-12-03T13:27:23.361Z,12.35
2022-12-03T13:30:00.765Z,13.60
2022-12-03T13:32:30.897Z,13.10
2022-12-03T13:35:36.014Z,13.63
2022-12-03T13:38:15.431Z,13.35
2022-12-03T13:40:42.494Z,14.32
2022-12-03T13:43:18.617Z,16.02
2022-12-03T13:45:49.618Z,13.30
2022-12-03T13:48:28.553Z,15.35
2022-12-03T13:50:56.978Z,14.35
2022-12-03T13:53:33.968Z,14.82
2022-12-03T13:56:22.114Z,15.15
2022-12-03T13:58:48.948Z,14.10
2022-12-03T14:01:15.715Z,16.00
2022-12-03T14:03:43.530Z,12.97
2022-12-03T14:06:10.473Z,15.55
2022-12-03T14:08:37.474Z,21.77
2022-12-03T14:11:04.594Z,16.20
2022-12-03T14:13:32.417Z,15.00
2022-12-03T14:15:59.349Z,14.95
2022-12-03T14:18:26.340Z,15.20
2022-12-03T14:20:54.196Z,15.13
2022-12-03T14:23:21.150Z,17.13
2022-12-03T14:25:49.017Z,15.57
2022-12-03T14:28:21.841Z,14.40
2022-12-03T14:30:51.742Z,15.05
2022-12-03T14:33:19.058Z,14.43
2022-12-03T14:35:48.985Z,15.77
2022-12-03T14:38:15.714Z,14.88
2022-12-03T14:40:42.562Z,15.25
2022-12-03T14:43:11.313Z,14.85
2022-12-03T14:45:38.118Z,15.57
2022-12-03T14:48:06.085Z,16.20
2022-12-03T14:50:32.890Z,13.35
2022-12-03T14:52:59.605Z,15.17
2022-12-03T14:55:33.677Z,16.30
2022-12-03T14:58:00.599Z,16.75
2022-12-03T15:00:29.627Z,14.82
2022-12-03T15:02:56.687Z,13.75
2022-12-03T15:05:28.589Z,16.10
2022-12-03T15:07:56.207Z,16.42
2022-12-03T15:10:25.445Z,16.42
2022-12-03T15:12:54.174Z,14.35
2022-12-03T15:15:20.927Z,15.93
2022-12-03T15:17:47.611Z,14.13
2022-12-03T15:20:16.585Z,14.38
2022-12-03T15:22:43.308Z,15.43
2022-12-03T15:25:10.287Z,15.52
2022-12-03T15:27:36.995Z,14.88
2022-12-03T15:30:05.082Z,15.30
2022-12-03T15:32:31.975Z,17.25
2022-12-03T15:34:58.856Z,16.03
2022-12-03T15:37:27.987Z,16.52
2022-12-03T15:39:55.115Z,16.90
2022-12-03T15:42:22.124Z,15.85
2022-12-03T15:44:49.971Z,15.17
2022-12-03T15:47:16.690Z,14.05
2022-12-03T15:49:45.061Z,14.95
2022-12-03T15:52:11.792Z,14.80
2022-12-03T15:54:39.669Z,15.07
2022-12-03T15:57:07.390Z,14.75
2022-12-03T16:00:01.388Z,17.50
2022-12-03T16:02:33.855Z,17.23
2022-12-03T16:05:06.533Z,16.73
2022-12-03T16:07:33.450Z,16.52
2022-12-03T16:10:01.973Z,15.85
2022-12-03T16:12:39.567Z,18.85
2022-12-03T16:15:10.555Z,15.68
2022-12-03T16:17:38.393Z,15.38
2022-12-03T16:20:06.659Z,15.55
2022-12-03T16:22:34.406Z,15.85
2022-12-03T16:27:27.936Z,15.52
2022-12-03T16:29:56.545Z,16.07
2022-12-03T16:32:25.888Z,17.88
2022-12-03T16:34:52.616Z,16.15
2022-12-03T16:37:20.715Z,16.57
2022-12-03T16:39:48.355Z,16.35
2022-12-03T16:44:59.525Z,17.17
2022-12-03T16:47:32.070Z,16.70
2022-12-03T16:50:01.753Z,17.30
2022-12-03T16:52:31.783Z,16.98
2022-12-03T16:54:58.703Z,17.38
2022-12-03T16:57:31.934Z,16.35
2022-12-03T17:00:00.856Z,15.48
2022-12-03T17:02:32.566Z,17.40
2022-12-03T17:04:59.437Z,15.35
2022-12-03T17:07:26.268Z,18.13
2022-12-03T17:09:53.371Z,18.35
2022-12-03T17:12:20.248Z,18.50
2022-12-03T17:14:47.012Z,19.00
2022-12-03T17:17:13.700Z,23.37
2022-12-03T17:19:40.388Z,20.27
2022-12-03T17:22:07.127Z,17.00
2022-12-03T17:24:37.513Z,18.73
2022-12-03T17:27:06.265Z,16.17
2022-12-03T17:29:33.077Z,19.65
2022-12-03T17:32:00.967Z,20.20
2022-12-03T17:34:27.792Z,19.33
2022-12-03T17:36:57.725Z,24.30
2022-12-03T17:39:24.584Z,20.33
2022-12-03T17:41:51.278Z,17.13
2022-12-03T17:44:21.050Z,17.20
2022-12-03T17:46:48.353Z,19.88
2022-12-03T17:49:15.145Z,19.98
2022-12-03T17:51:43.359Z,15.73
2022-12-03T17:54:12.402Z,20.65
2022-12-03T17:56:43.456Z,17.38
2022-12-03T17:59:12.027Z,18.58
2022-12-03T18:01:39.497Z,18.38
2022-12-03T18:04:06.322Z,16.20
2022-12-03T18:06:33.173Z,16.25
2022-12-03T18:09:00.229Z,17.40
2022-12-03T18:11:27.114Z,16.58
2022-12-03T18:13:53.860Z,18.65
2022-12-03T18:16:20.688Z,17.00
2022-12-03T18:18:48.632Z,19.95
2022-12-03T18:21:18.014Z,18.48
2022-12-03T18:23:44.931Z,17.07
2022-12-03T18:26:12.121Z,18.88
2022-12-03T18:28:39.915Z,20.48
2022-12-03T18:31:14.667Z,19.15
2022-12-03T18:33:42.839Z,18.48
2022-12-03T18:36:26.681Z,22.05
2022-12-03T18:38:55.365Z,38.05
2022-12-03T18:41:25.532Z,28.75
2022-12-03T18:43:52.975Z,21.67
2022-12-03T18:49:08.754Z,18.33
2022-12-03T18:51:36.180Z,17.00
2022-12-03T18:54:03.156Z,19.38
2022-12-03T18:56:29.898Z,19.98
2022-12-03T18:58:56.698Z,18.58
2022-12-03T19:01:23.691Z,19.67
2022-12-03T19:03:50.615Z,19.15
2022-12-03T19:06:19.531Z,21.10
2022-12-03T19:08:48.931Z,20.00
2022-12-03T19:11:15.848Z,21.15
2022-12-03T19:13:43.094Z,21.17
2022-12-03T19:16:12.091Z,18.55
2022-12-03T19:18:39.361Z,19.33
2022-12-03T19:21:11.633Z,19.13
2022-12-03T19:23:39.454Z,20.60
2022-12-03T19:26:09.158Z,19.45
2022-12-03T19:28:36.344Z,18.13
2022-12-03T19:31:16.353Z,20.05
2022-12-03T19:33:49.258Z,19.02
2022-12-03T19:36:24.838Z,17.65
2022-12-03T19:38:57.318Z,19.50
2022-12-03T19:41:27.899Z,15.40
2022-12-03T19:43:56.215Z,16.45
2022-12-03T19:46:24.554Z,14.65
2022-12-03T19:48:51.482Z,16.25
2022-12-03T19:51:35.344Z,15.68
2022-12-03T19:54:07.651Z,15.40
2022-12-03T19:56:34.856Z,16.98
2022-12-03T19:59:02.036Z,16.42
2022-12-03T20:01:31.551Z,14.45
2022-12-03T20:04:00.153Z,16.65
2022-12-03T20:06:33.155Z,13.88
2022-12-03T20:09:11.998Z,14.35
2022-12-03T20:11:40.785Z,13.57
2022-12-03T20:14:11.066Z,14.05
2022-12-03T20:16:37.959Z,12.73
2022-12-03T20:19:07.193Z,14.25
2022-12-03T20:21:36.330Z,13.38
2022-12-03T20:24:04.551Z,12.57
2022-12-03T20:26:32.279Z,13.80
2022-12-03T20:31:28.563Z,13.88
2022-12-03T20:33:58.892Z,13.60
2022-12-03T20:36:26.572Z,13.90
2022-12-03T20:41:21.391Z,12.38
2022-12-03T20:43:48.434Z,13.38
2022-12-03T20:46:27.581Z,13.80
2022-12-03T20:48:55.133Z,13.88
2022-12-03T20:51:28.033Z,15.18
2022-12-03T20:53:55.714Z,15.38
2022-12-03T20:58:51.452Z,12.63
2022-12-03T21:01:26.725Z,14.75
2022-12-03T21:03:55.464Z,13.80
2022-12-03T21:06:24.837Z,11.98
2022-12-03T21:08:57.734Z,13.20
2022-12-03T21:11:32.687Z,14.40
2022-12-03T21:14:00.476Z,13.35
2022-12-03T21:17:06.086Z,13.55
2022-12-03T21:19:23.231Z,14.27
2022-12-03T21:21:50.212Z,16.10
2022-12-03T21:24:16.927Z,16.50
2022-12-03T21:26:43.715Z,15.60
2022-12-03T21:29:18.301Z,14.35
2022-12-03T21:31:47.632Z,15.27
2022-12-03T21:34:14.655Z,16.42
2022-12-03T21:36:41.333Z,15.60
2022-12-03T21:39:08.456Z,17.40
2022-12-03T21:41:36.745Z,17.13
2022-12-03T21:44:04.308Z,17.52
2022-12-03T21:47:12.462Z,17.60
2022-12-03T21:49:19.403Z,15.13
2022-12-03T21:51:46.540Z,19.77
2022-12-03T21:54:13.406Z,17.63
2022-12-03T21:56:40.262Z,18.27
2022-12-03T21:59:06.922Z,16.45
2022-12-03T22:01:36.020Z,17.80
2022-12-03T22:04:02.839Z,17.05
2022-12-03T22:06:29.586Z,20.53
2022-12-03T22:08:56.312Z,17.63
2022-12-03T22:11:23.851Z,18.73
2022-12-03T22:13:51.401Z,19.08
2022-12-03T22:16:20.491Z,18.02
2022-12-03T22:18:50.195Z,16.80
2022-12-03T22:21:19.257Z,16.73
2022-12-03T22:23:46.520Z,18.35
2022-12-03T22:26:16.915Z,16.90
2022-12-03T22:28:48.422Z,16.58
2022-12-03T22:31:16.469Z,20.25
2022-12-03T22:33:45.612Z,16.83
2022-12-03T22:36:18.305Z,17.85
2022-12-03T22:38:47.368Z,17.33
2022-12-03T22:41:16.198Z,18.70
2022-12-03T22:43:43.312Z,17.80
2022-12-03T22:46:12.531Z,18.80
2022-12-03T22:48:40.579Z,23.05
2022-12-03T22:53:41.347Z,18.58
2022-12-03T22:56:08.084Z,19.08
2022-12-03T22:58:36.858Z,18.40
2022-12-03T23:01:03.861Z,20.45
2022-12-03T23:03:30.742Z,21.58
2022-12-03T23:05:57.426Z,18.33
2022-12-03T23:08:25.219Z,18.92
2022-12-03T23:10:53.127Z,22.25
2022-12-03T23:13:20.704Z,19.58
2022-12-03T23:15:52.664Z,17.75
2022-12-03T23:18:20.123Z,20.30
2022-12-03T23:20:51.020Z,18.42
2022-12-03T23:23:19.806Z,18.23
2022-12-03T23:26:05.190Z,21.25
2022-12-03T23:28:33.892Z,18.17
2022-12-03T23:31:05.627Z,19.17
2022-12-03T23:33:37.974Z,33.88
2022-12-03T23:36:10.572Z,24.15
2022-12-03T23:38:38.173Z,26.88
2022-12-03T23:41:06.212Z,20.38
2022-12-03T23:43:33.176Z,29.65
2022-12-03T23:46:12.004Z,21.42
2022-12-03T23:48:39.309Z,24.30
2022-12-03T23:51:07.963Z,20.92
2022-12-03T23:53:35.657Z,21.30
2022-12-03T23:58:36.079Z,19.05
